createdAt,value
2019-02-15T00:01:05.032Z,12.30
2019-02-15T00:03:31.085Z,11.90
2019-02-15T00:05:57.139Z,10.40
2019-02-15T00:08:23.586Z,11.60
2019-02-15T00:10:49.687Z,11.30
2019-02-15T00:13:15.780Z,12.40
2019-02-15T00:15:43.309Z,11.90
2019-02-15T00:18:14.177Z,11.10
2019-02-15T00:20:42.637Z,11.90
2019-02-15T00:23:08.688Z,10.80
2019-02-15T00:25:34.730Z,12.17
2019-02-15T00:28:00.804Z,11.20
2019-02-15T00:30:26.888Z,10.93
2019-02-15T00:32:52.968Z,12.10
2019-02-15T00:35:19.019Z,11.57
2019-02-15T00:37:45.348Z,11.90
2019-02-15T00:40:11.759Z,12.60
2019-02-15T00:42:37.808Z,13.90
2019-02-15T00:45:06.528Z,12.70
2019-02-15T00:47:40.628Z,13.30
2019-02-15T00:50:12.560Z,11.73
2019-02-15T00:52:46.111Z,12.13
2019-02-15T00:55:29.256Z,11.37
2019-02-15T00:58:15.210Z,12.50
2019-02-15T01:00:49.781Z,13.43
2019-02-15T01:03:18.490Z,13.10
2019-02-15T01:05:46.759Z,13.17
2019-02-15T01:08:14.704Z,11.60
2019-02-15T01:10:45.196Z,12.50
2019-02-15T01:13:13.144Z,11.73
2019-02-15T01:15:39.190Z,13.40
2019-02-15T01:18:05.269Z,12.30
2019-02-15T01:20:31.599Z,12.37
2019-02-15T01:22:57.931Z,12.67
2019-02-15T01:25:25.908Z,12.83
2019-02-15T01:27:53.856Z,12.67
2019-02-15T01:30:22.547Z,13.23
2019-02-15T01:32:53.300Z,12.27
2019-02-15T01:35:37.696Z,12.40
2019-02-15T01:38:05.653Z,13.17
2019-02-15T01:40:45.468Z,12.37
2019-02-15T01:43:19.562Z,13.60
2019-02-15T01:45:53.892Z,12.57
2019-02-15T01:48:20.307Z,12.40
2019-02-15T01:50:46.397Z,12.17
2019-02-15T01:53:12.764Z,12.00
2019-02-15T01:55:38.825Z,12.63
2019-02-15T01:58:04.899Z,12.90
2019-02-15T02:00:32.466Z,12.60
2019-02-15T02:02:58.515Z,12.80
2019-02-15T02:05:24.923Z,13.47
2019-02-15T02:07:50.982Z,11.97
2019-02-15T02:10:17.427Z,12.43
2019-02-15T02:12:43.576Z,11.83
2019-02-15T02:15:10.473Z,11.10
2019-02-15T02:17:36.949Z,13.37
2019-02-15T02:20:06.165Z,11.70
2019-02-15T02:22:32.583Z,12.30
2019-02-15T02:24:58.692Z,12.10
2019-02-15T02:27:24.741Z,12.53
2019-02-15T02:29:50.787Z,11.70
2019-02-15T02:32:17.113Z,10.63
2019-02-15T02:34:43.192Z,11.67
2019-02-15T02:37:09.567Z,11.50
2019-02-15T02:39:36.308Z,12.40
2019-02-15T02:42:02.503Z,11.43
2019-02-15T02:44:28.869Z,12.40
2019-02-15T02:46:54.912Z,11.03
2019-02-15T02:49:21.628Z,12.37
2019-02-15T02:51:47.677Z,11.60
2019-02-15T02:54:13.729Z,11.30
2019-02-15T02:56:40.109Z,11.10
2019-02-15T02:59:06.618Z,11.23
2019-02-15T03:01:33.271Z,11.33
2019-02-15T03:03:59.723Z,10.27
2019-02-15T03:06:25.773Z,11.80
2019-02-15T03:08:51.864Z,10.57
2019-02-15T03:11:17.913Z,11.90
2019-02-15T03:13:44.205Z,11.40
2019-02-15T03:16:10.536Z,12.03
2019-02-15T03:18:36.865Z,11.87
2019-02-15T03:21:02.945Z,12.13
2019-02-15T03:23:29.732Z,11.33
2019-02-15T03:25:55.827Z,12.00
2019-02-15T03:28:21.937Z,12.07
2019-02-15T03:30:48.026Z,11.93
2019-02-15T03:33:14.749Z,11.00
2019-02-15T03:35:42.755Z,11.43
2019-02-15T03:38:11.501Z,11.60
2019-02-15T03:40:39.773Z,11.83
2019-02-15T03:43:05.837Z,11.13
2019-02-15T03:45:32.296Z,10.47
2019-02-15T03:47:58.344Z,10.87
2019-02-15T03:50:24.397Z,11.73
2019-02-15T03:52:50.847Z,11.23
2019-02-15T03:55:16.936Z,11.80
2019-02-15T03:57:42.984Z,11.00
2019-02-15T04:00:12.145Z,11.47
2019-02-15T04:02:38.595Z,11.23
2019-02-15T04:05:07.144Z,10.37
2019-02-15T04:07:33.560Z,10.90
2019-02-15T04:10:00.507Z,10.50
2019-02-15T04:12:27.900Z,10.63
2019-02-15T04:14:53.944Z,10.23
2019-02-15T04:17:20.403Z,10.87
2019-02-15T04:19:46.440Z,10.53
2019-02-15T04:22:12.497Z,10.50
2019-02-15T04:24:38.945Z,10.30
2019-02-15T04:27:04.998Z,10.17
2019-02-15T04:29:31.044Z,10.10
2019-02-15T04:31:57.236Z,11.27
2019-02-15T04:34:23.290Z,10.37
2019-02-15T04:36:49.374Z,10.40
2019-02-15T04:39:16.087Z,10.93
2019-02-15T04:41:42.439Z,10.63
2019-02-15T04:44:08.611Z,9.90
2019-02-15T04:46:34.693Z,10.07
2019-02-15T04:49:00.833Z,10.30
2019-02-15T04:51:26.955Z,10.40
2019-02-15T04:53:53.365Z,9.40
2019-02-15T04:56:19.465Z,9.73
2019-02-15T04:58:45.514Z,10.37
2019-02-15T05:01:12.248Z,9.80
2019-02-15T05:03:38.292Z,9.93
2019-02-15T05:06:04.345Z,10.00
2019-02-15T05:08:30.437Z,9.07
2019-02-15T05:10:56.477Z,11.23
2019-02-15T05:13:22.866Z,10.87
2019-02-15T05:15:48.940Z,9.17
2019-02-15T05:18:14.988Z,10.87
2019-02-15T05:20:41.339Z,9.83
2019-02-15T05:23:07.427Z,9.83
2019-02-15T05:25:33.548Z,9.70
2019-02-15T05:27:59.980Z,9.63
2019-02-15T05:30:26.096Z,9.37
2019-02-15T05:32:52.140Z,9.33
2019-02-15T05:35:18.336Z,9.50
2019-02-15T05:37:44.423Z,9.83
2019-02-15T05:40:10.893Z,9.40
2019-02-15T05:42:37.184Z,9.03
2019-02-15T05:45:05.465Z,8.90
2019-02-15T05:47:31.792Z,9.07
2019-02-15T05:49:58.252Z,10.47
2019-02-15T05:52:24.657Z,9.80
2019-02-15T05:54:51.109Z,9.73
2019-02-15T05:57:17.419Z,9.90
2019-02-15T05:59:43.504Z,10.03
2019-02-15T06:02:10.137Z,9.57
2019-02-15T06:04:36.509Z,9.40
2019-02-15T06:07:02.641Z,9.10
2019-02-15T06:09:28.960Z,8.60
2019-02-15T06:11:55.314Z,9.20
2019-02-15T06:14:21.720Z,9.17
2019-02-15T06:16:47.769Z,9.63
2019-02-15T06:19:13.827Z,9.37
2019-02-15T06:21:40.208Z,9.10
2019-02-15T06:24:06.588Z,9.37
2019-02-15T06:26:32.992Z,9.13
2019-02-15T06:28:59.457Z,8.63
2019-02-15T06:31:25.510Z,8.20
2019-02-15T06:33:51.961Z,8.87
2019-02-15T06:36:18.248Z,9.63
2019-02-15T06:38:44.617Z,9.97
2019-02-15T06:41:12.404Z,9.53
2019-02-15T06:43:38.873Z,9.87
2019-02-15T06:46:04.915Z,10.13
2019-02-15T06:48:31.409Z,9.07
2019-02-15T06:50:57.449Z,9.60
2019-02-15T06:53:23.533Z,9.07
2019-02-15T06:55:49.987Z,8.53
2019-02-15T06:58:16.072Z,9.60
2019-02-15T07:00:47.130Z,8.97
2019-02-15T07:03:18.151Z,8.87
2019-02-15T07:05:44.203Z,9.03
2019-02-15T07:08:10.248Z,9.90
2019-02-15T07:10:36.730Z,9.63
2019-02-15T07:13:02.872Z,9.40
2019-02-15T07:15:33.732Z,9.43
2019-02-15T07:17:57.236Z,9.33
2019-02-15T07:20:23.284Z,8.70
2019-02-15T07:22:49.739Z,9.67
2019-02-15T07:25:15.790Z,9.37
2019-02-15T07:27:41.834Z,8.87
2019-02-15T07:30:10.457Z,9.20
2019-02-15T07:32:36.805Z,9.67
2019-02-15T07:35:04.292Z,9.10
2019-02-15T07:37:31.094Z,9.30
2019-02-15T07:39:57.499Z,9.30
2019-02-15T07:42:24.235Z,10.40
2019-02-15T07:44:50.280Z,9.60
2019-02-15T07:47:16.996Z,9.00
2019-02-15T07:49:43.081Z,9.30
2019-02-15T07:52:09.379Z,9.57
2019-02-15T07:54:35.784Z,9.20
2019-02-15T07:57:01.844Z,8.83
2019-02-15T07:59:27.888Z,8.83
2019-02-15T08:02:01.613Z,8.67
2019-02-15T08:04:22.350Z,9.20
2019-02-15T08:06:48.425Z,9.97
2019-02-15T08:09:14.505Z,9.03
2019-02-15T08:11:40.919Z,10.10
2019-02-15T08:14:14.597Z,9.00
2019-02-15T08:16:34.975Z,10.00
2019-02-15T08:19:01.424Z,9.77
2019-02-15T08:21:27.835Z,9.17
2019-02-15T08:23:53.900Z,9.47
2019-02-15T08:26:19.985Z,8.70
2019-02-15T08:28:46.357Z,8.83
2019-02-15T08:31:12.403Z,9.07
2019-02-15T08:33:38.860Z,8.43
2019-02-15T08:36:05.233Z,9.07
2019-02-15T08:38:31.281Z,8.73
2019-02-15T08:40:57.755Z,8.90
2019-02-15T08:43:23.807Z,8.93
2019-02-15T08:45:49.858Z,8.80
2019-02-15T08:48:16.583Z,8.60
2019-02-15T08:50:42.634Z,8.80
2019-02-15T08:53:09.081Z,8.73
2019-02-15T08:55:35.468Z,8.57
2019-02-15T08:58:01.796Z,9.07
2019-02-15T09:00:28.225Z,8.80
2019-02-15T09:02:54.272Z,8.40
2019-02-15T09:05:20.693Z,8.00
2019-02-15T09:07:46.780Z,9.43
2019-02-15T09:10:13.241Z,9.20
2019-02-15T09:12:39.279Z,8.43
2019-02-15T09:15:15.338Z,7.60
2019-02-15T09:17:41.739Z,8.17
2019-02-15T09:20:10.188Z,8.47
2019-02-15T09:22:36.288Z,8.17
2019-02-15T09:25:05.140Z,7.73
2019-02-15T09:27:33.455Z,8.20
2019-02-15T09:29:59.534Z,7.67
2019-02-15T09:32:25.581Z,8.93
2019-02-15T09:34:52.031Z,8.13
2019-02-15T09:37:18.445Z,9.27
2019-02-15T09:39:44.497Z,7.80
2019-02-15T09:42:10.665Z,8.03
2019-02-15T09:44:36.840Z,7.83
2019-02-15T09:47:02.891Z,7.93
2019-02-15T09:49:28.928Z,7.73
2019-02-15T09:51:55.620Z,8.07
2019-02-15T09:54:22.123Z,7.20
2019-02-15T09:56:48.451Z,7.43
2019-02-15T09:59:14.501Z,8.10
2019-02-15T10:01:40.549Z,7.60
2019-02-15T10:04:06.933Z,8.20
2019-02-15T10:06:32.976Z,7.60
2019-02-15T10:08:59.019Z,8.00
2019-02-15T10:11:25.715Z,7.67
2019-02-15T10:13:51.769Z,7.13
2019-02-15T10:16:18.172Z,7.90
2019-02-15T10:18:44.216Z,6.90
2019-02-15T10:21:10.259Z,7.40
2019-02-15T10:23:37.066Z,6.77
2019-02-15T10:26:03.485Z,7.57
2019-02-15T10:28:30.227Z,6.63
2019-02-15T10:30:56.309Z,7.80
2019-02-15T10:33:22.684Z,7.60
2019-02-15T10:35:49.869Z,6.30
2019-02-15T10:38:15.989Z,6.27
2019-02-15T10:40:42.036Z,7.10
2019-02-15T10:43:08.417Z,6.77
2019-02-15T10:45:34.744Z,7.20
2019-02-15T10:48:01.068Z,6.60
2019-02-15T10:50:27.515Z,7.00
2019-02-15T10:52:53.665Z,7.10
2019-02-15T10:55:20.114Z,6.53
2019-02-15T10:57:46.493Z,7.07
2019-02-15T11:00:20.304Z,6.90
2019-02-15T11:02:46.357Z,6.83
2019-02-15T11:05:14.394Z,6.80
2019-02-15T11:07:40.725Z,6.40
2019-02-15T11:10:09.304Z,6.10
2019-02-15T11:12:35.384Z,6.30
2019-02-15T11:15:03.193Z,6.67
2019-02-15T11:17:29.617Z,6.20
2019-02-15T11:19:55.664Z,6.27
2019-02-15T11:22:22.109Z,5.73
2019-02-15T11:24:48.528Z,6.10
2019-02-15T11:27:14.985Z,5.80
2019-02-15T11:29:41.039Z,6.40
2019-02-15T11:32:07.396Z,6.60
2019-02-15T11:34:33.728Z,5.80
2019-02-15T11:36:59.777Z,5.17
2019-02-15T11:39:25.862Z,6.00
2019-02-15T11:41:51.954Z,5.67
2019-02-15T11:44:18.432Z,5.50
2019-02-15T11:46:44.485Z,5.30
2019-02-15T11:49:10.560Z,6.17
2019-02-15T11:51:36.914Z,6.13
2019-02-15T11:54:02.960Z,5.60
2019-02-15T11:56:29.373Z,5.80
2019-02-15T11:58:55.453Z,5.43
2019-02-15T12:01:21.502Z,5.77
2019-02-15T12:03:48.355Z,6.27
2019-02-15T12:06:14.444Z,5.70
2019-02-15T12:08:40.584Z,5.60
2019-02-15T12:11:06.667Z,4.57
2019-02-15T12:13:33.115Z,5.40
2019-02-15T12:15:59.538Z,5.13
2019-02-15T12:18:25.639Z,4.93
2019-02-15T12:20:51.949Z,5.17
2019-02-15T12:23:18.000Z,4.67
2019-02-15T12:25:44.112Z,5.37
2019-02-15T12:28:10.163Z,5.00
2019-02-15T12:30:36.207Z,4.97
2019-02-15T12:33:02.312Z,5.10
2019-02-15T12:35:28.729Z,5.20
2019-02-15T12:37:55.024Z,4.90
2019-02-15T12:40:21.500Z,4.57
2019-02-15T12:42:48.295Z,4.90
2019-02-15T12:45:15.512Z,4.87
2019-02-15T12:47:42.291Z,4.50
2019-02-15T12:50:12.147Z,4.90
2019-02-15T12:52:38.846Z,4.67
2019-02-15T12:55:04.955Z,5.50
2019-02-15T12:57:31.084Z,4.97
2019-02-15T12:59:57.144Z,4.60
2019-02-15T13:02:23.544Z,4.37
2019-02-15T13:04:49.832Z,4.33
2019-02-15T13:07:15.880Z,4.90
2019-02-15T13:09:41.960Z,4.30
2019-02-15T13:12:08.660Z,5.67
2019-02-15T13:14:35.840Z,4.00
2019-02-15T13:17:01.884Z,4.20
2019-02-15T13:19:28.567Z,4.07
2019-02-15T13:21:54.900Z,4.87
2019-02-15T13:24:20.948Z,4.43
2019-02-15T13:26:48.589Z,4.47
2019-02-15T13:29:15.015Z,4.47
2019-02-15T13:31:41.065Z,4.23
2019-02-15T13:34:07.481Z,4.87
2019-02-15T13:36:34.224Z,3.80
2019-02-15T13:39:00.273Z,3.93
2019-02-15T13:41:26.320Z,4.00
2019-02-15T13:43:52.399Z,3.33
2019-02-15T13:46:19.220Z,4.27
2019-02-15T13:48:45.305Z,3.83
2019-02-15T13:51:11.683Z,4.50
2019-02-15T13:53:37.728Z,3.33
2019-02-15T13:56:04.048Z,4.10
2019-02-15T13:58:30.124Z,3.50
2019-02-15T14:00:56.213Z,3.47
2019-02-15T14:03:22.720Z,3.73
2019-02-15T14:05:48.760Z,2.83
2019-02-15T14:08:14.808Z,3.53
2019-02-15T14:10:41.268Z,3.53
2019-02-15T14:13:07.679Z,3.00
2019-02-15T14:15:33.731Z,3.13
2019-02-15T14:17:59.818Z,3.77
2019-02-15T14:20:25.887Z,3.37
2019-02-15T14:22:51.944Z,3.30
2019-02-15T14:25:18.020Z,3.23
2019-02-15T14:27:44.082Z,3.10
2019-02-15T14:30:11.782Z,3.10
2019-02-15T14:32:37.912Z,3.50
2019-02-15T14:35:07.968Z,3.30
2019-02-15T14:37:34.049Z,3.50
2019-02-15T14:40:00.122Z,2.83
2019-02-15T14:42:27.176Z,2.70
2019-02-15T14:44:53.225Z,3.13
2019-02-15T14:47:19.616Z,3.23
2019-02-15T14:49:45.666Z,3.20
2019-02-15T14:52:11.811Z,3.17
2019-02-15T14:54:37.892Z,3.23
2019-02-15T14:57:04.035Z,3.13
2019-02-15T14:59:30.085Z,2.87
2019-02-15T15:01:56.170Z,2.60
2019-02-15T15:04:22.213Z,2.83
2019-02-15T15:06:48.256Z,2.60
2019-02-15T15:09:14.639Z,3.27
2019-02-15T15:11:41.053Z,2.83
2019-02-15T15:14:07.100Z,2.70
2019-02-15T15:16:33.524Z,2.83
2019-02-15T15:18:59.572Z,2.57
2019-02-15T15:21:25.880Z,2.70
2019-02-15T15:23:51.964Z,2.50
2019-02-15T15:26:18.005Z,2.77
2019-02-15T15:28:44.356Z,2.63
2019-02-15T15:31:11.354Z,2.80
2019-02-15T15:33:38.299Z,2.50
2019-02-15T15:36:05.907Z,2.10
2019-02-15T15:38:32.640Z,3.00
2019-02-15T15:40:58.724Z,2.43
2019-02-15T15:43:24.763Z,2.67
2019-02-15T15:45:50.812Z,2.60
2019-02-15T15:48:22.771Z,2.50
2019-02-15T15:50:44.892Z,2.53
2019-02-15T15:53:10.954Z,2.40
2019-02-15T15:55:37.395Z,2.30
2019-02-15T15:58:03.473Z,2.63
2019-02-15T16:00:38.468Z,2.50
2019-02-15T16:02:57.604Z,2.50
2019-02-15T16:05:24.020Z,2.20
2019-02-15T16:07:50.340Z,2.47
2019-02-15T16:10:16.676Z,2.70
2019-02-15T16:12:42.728Z,2.77
2019-02-15T16:15:11.072Z,2.30
2019-02-15T16:17:37.827Z,2.90
2019-02-15T16:20:07.684Z,2.27
2019-02-15T16:22:33.972Z,2.43
2019-02-15T16:25:00.384Z,2.60
2019-02-15T16:27:26.433Z,2.30
2019-02-15T16:29:52.736Z,2.30
2019-02-15T16:32:19.188Z,1.90
2019-02-15T16:34:45.495Z,2.47
2019-02-15T16:37:11.548Z,2.17
2019-02-15T16:39:37.735Z,2.40
2019-02-15T16:42:03.793Z,2.40
2019-02-15T16:44:29.937Z,2.20
2019-02-15T16:46:56.032Z,2.73
2019-02-15T16:49:22.095Z,2.53
2019-02-15T16:51:48.182Z,2.53
2019-02-15T16:54:14.600Z,2.77
2019-02-15T16:56:40.927Z,2.80
2019-02-15T16:59:06.980Z,3.73
2019-02-15T17:01:33.037Z,4.30
2019-02-15T17:03:59.112Z,4.37
2019-02-15T17:06:25.528Z,3.10
2019-02-15T17:08:51.604Z,3.73
2019-02-15T17:11:17.755Z,7.93
2019-02-15T17:13:43.800Z,7.50
2019-02-15T17:16:09.882Z,7.97
2019-02-15T17:18:35.973Z,12.57
2019-02-15T17:21:02.015Z,12.80
2019-02-15T17:23:28.094Z,11.37
2019-02-15T17:25:54.432Z,10.77
2019-02-15T17:28:20.893Z,12.43
2019-02-15T17:30:47.019Z,11.80
2019-02-15T17:33:13.315Z,11.10
2019-02-15T17:35:39.400Z,11.90
2019-02-15T17:38:05.450Z,12.50
2019-02-15T17:40:31.532Z,11.13
2019-02-15T17:42:58.522Z,10.00
2019-02-15T17:45:25.867Z,10.43
2019-02-15T17:47:51.957Z,10.90
2019-02-15T17:50:18.424Z,8.43
2019-02-15T17:52:45.184Z,10.07
2019-02-15T17:55:11.603Z,9.77
2019-02-15T17:57:38.035Z,8.67
2019-02-15T18:00:08.444Z,8.93
2019-02-15T18:02:34.925Z,9.47
2019-02-15T18:05:01.220Z,7.67
2019-02-15T18:07:27.871Z,9.03
2019-02-15T18:09:53.981Z,8.37
2019-02-15T18:12:20.029Z,7.00
2019-02-15T18:14:46.158Z,7.10
2019-02-15T18:17:12.632Z,6.73
2019-02-15T18:19:46.927Z,7.10
2019-02-15T18:22:06.621Z,7.00
2019-02-15T18:24:33.407Z,7.03
2019-02-15T18:26:59.944Z,6.67
2019-02-15T18:29:26.285Z,7.03
2019-02-15T18:31:52.608Z,6.23
2019-02-15T18:34:18.694Z,7.10
2019-02-15T18:36:45.363Z,6.33
2019-02-15T18:39:11.445Z,6.37
2019-02-15T18:41:38.237Z,6.67
2019-02-15T18:44:04.967Z,7.10
2019-02-15T18:46:31.013Z,5.17
2019-02-15T18:48:57.468Z,5.57
2019-02-15T18:51:23.873Z,6.20
2019-02-15T18:53:49.921Z,5.70
2019-02-15T18:56:16.013Z,6.00
2019-02-15T18:58:42.204Z,5.50
2019-02-15T19:01:08.247Z,6.13
2019-02-15T19:03:34.356Z,5.97
2019-02-15T19:06:00.405Z,5.47
2019-02-15T19:08:26.489Z,5.57
2019-02-15T19:10:52.855Z,5.40
2019-02-15T19:13:19.204Z,5.20
2019-02-15T19:15:45.255Z,6.20
2019-02-15T19:18:11.300Z,5.20
2019-02-15T19:20:37.383Z,5.27
2019-02-15T19:23:03.429Z,5.30
2019-02-15T19:25:29.876Z,5.03
2019-02-15T19:27:56.245Z,4.97
2019-02-15T19:30:29.833Z,4.70
2019-02-15T19:32:56.289Z,4.93
2019-02-15T19:35:22.335Z,5.80
2019-02-15T19:37:48.420Z,5.10
2019-02-15T19:40:17.567Z,5.00
2019-02-15T19:42:45.017Z,5.00
2019-02-15T19:45:12.508Z,4.73
2019-02-15T19:47:39.077Z,4.90
2019-02-15T19:50:14.528Z,5.37
2019-02-15T19:52:40.799Z,5.00
2019-02-15T19:55:08.413Z,5.70
2019-02-15T19:57:35.240Z,5.27
2019-02-15T20:00:02.324Z,3.53
2019-02-15T20:02:29.129Z,4.50
2019-02-15T20:04:55.245Z,5.13
2019-02-15T20:07:21.284Z,4.70
2019-02-15T20:09:47.379Z,5.07
2019-02-15T20:12:13.732Z,5.00
2019-02-15T20:14:40.474Z,5.40
2019-02-15T20:17:06.520Z,4.50
2019-02-15T20:19:32.932Z,5.67
2019-02-15T20:21:59.401Z,4.50
2019-02-15T20:24:26.205Z,4.73
2019-02-15T20:26:52.251Z,4.37
2019-02-15T20:29:18.353Z,4.70
2019-02-15T20:31:44.399Z,4.37
2019-02-15T20:34:10.722Z,5.27
2019-02-15T20:36:37.232Z,4.43
2019-02-15T20:39:04.482Z,4.07
2019-02-15T20:41:30.961Z,4.20
2019-02-15T20:43:57.347Z,4.70
2019-02-15T20:46:23.828Z,4.03
2019-02-15T20:49:03.837Z,4.70
2019-02-15T20:51:18.159Z,4.00
2019-02-15T20:53:44.273Z,4.10
2019-02-15T20:56:10.945Z,4.23
2019-02-15T20:58:38.005Z,4.50
2019-02-15T21:01:05.757Z,4.27
2019-02-15T21:03:32.492Z,4.27
2019-02-15T21:05:58.828Z,4.43
2019-02-15T21:08:26.539Z,5.03
2019-02-15T21:10:55.359Z,4.70
2019-02-15T21:13:21.177Z,4.00
2019-02-15T21:15:47.289Z,3.77
2019-02-15T21:18:13.404Z,3.70
2019-02-15T21:20:39.492Z,4.10
2019-02-15T21:23:05.532Z,3.70
2019-02-15T21:25:31.979Z,3.70
2019-02-15T21:27:58.029Z,4.93
2019-02-15T21:30:24.444Z,3.60
2019-02-15T21:32:50.804Z,4.47
2019-02-15T21:35:16.902Z,4.60
2019-02-15T21:37:43.318Z,4.07
2019-02-15T21:40:12.660Z,4.20
2019-02-15T21:42:39.120Z,3.90
2019-02-15T21:45:06.637Z,4.10
2019-02-15T21:47:33.054Z,5.00
2019-02-15T21:49:59.416Z,4.13
2019-02-15T21:52:25.746Z,4.83
2019-02-15T21:54:51.956Z,3.80
2019-02-15T21:57:18.043Z,4.40
2019-02-15T21:59:44.096Z,4.87
2019-02-15T22:02:10.248Z,4.93
2019-02-15T22:04:36.576Z,3.90
2019-02-15T22:07:03.045Z,4.93
2019-02-15T22:09:29.335Z,5.10
2019-02-15T22:11:55.668Z,4.90
2019-02-15T22:14:22.116Z,5.27
2019-02-15T22:16:48.573Z,5.00
2019-02-15T22:19:14.616Z,4.10
2019-02-15T22:21:40.660Z,5.17
2019-02-15T22:24:07.115Z,5.40
2019-02-15T22:26:33.847Z,4.60
2019-02-15T22:29:00.260Z,5.37
2019-02-15T22:31:26.347Z,5.47
2019-02-15T22:33:52.739Z,6.07
2019-02-15T22:36:18.788Z,5.80
2019-02-15T22:38:45.512Z,5.60
2019-02-15T22:41:14.261Z,6.10
2019-02-15T22:43:42.256Z,6.70
2019-02-15T22:46:08.693Z,6.23
2019-02-15T22:48:35.025Z,6.10
2019-02-15T22:51:01.065Z,6.40
2019-02-15T22:53:27.480Z,6.60
2019-02-15T22:55:53.632Z,6.07
2019-02-15T22:58:19.673Z,7.00
2019-02-15T23:00:52.944Z,6.60
2019-02-15T23:03:24.543Z,7.20
2019-02-15T23:05:50.723Z,7.23
2019-02-15T23:08:16.768Z,7.93
2019-02-15T23:10:43.351Z,7.20
2019-02-15T23:13:09.396Z,7.70
2019-02-15T23:15:36.747Z,7.40
2019-02-15T23:18:03.468Z,7.80
2019-02-15T23:20:29.516Z,7.93
2019-02-15T23:22:55.924Z,8.13
2019-02-15T23:25:22.661Z,8.30
2019-02-15T23:27:48.992Z,7.97
2019-02-15T23:30:15.072Z,8.00
2019-02-15T23:32:41.449Z,8.07
2019-02-15T23:35:07.528Z,8.40
2019-02-15T23:37:33.572Z,8.57
2019-02-15T23:40:00.022Z,7.93
2019-02-15T23:42:26.188Z,8.13
2019-02-15T23:44:52.345Z,9.03
2019-02-15T23:47:18.397Z,8.00
2019-02-15T23:49:44.476Z,7.97
2019-02-15T23:52:11.328Z,8.20
2019-02-15T23:54:37.772Z,8.53
2019-02-15T23:57:04.535Z,8.70
2019-02-15T23:59:30.868Z,8.63
